Murree Weather



Murree's Current Weather

Temprature 16.97o few clouds

few clouds

Rain: 0 %

Min Temprature15o
Max Temprature17.78o
Humidity87
Wind Speed2.1 m/h
Sun Rise05:42:55
Sun Set18:32:36
Current Time: 09-Apr-2020 01:22:43
Lat/Lon: 33.91, 73.39




Murree's Geo Location



Murree's Weather Forecast

Time Overall Temp Min Temp Max Temp Humidity Wind Speed Rain
09-Apr-2020 (Thu)
02:00:00 few clouds 13.900 6.610 13.900 43 2.44 m/h 0 %
05:00:00 few clouds 11.280 5.810 11.280 40 2.14 m/h 0 %
08:00:00 broken clouds 13.430 9.790 13.430 41 1.96 m/h 0 %
11:00:00 broken clouds 16.890 15.070 16.890 26 1.11 m/h 0 %
14:00:00 overcast clouds 15.900 15.900 15.900 26 2.67 m/h 0 %
17:00:00 overcast clouds 14.630 14.630 14.630 37 2.08 m/h 0 %
20:00:00 light rain 8.160 8.160 8.160 51 3.72 m/h 273 %
23:00:00 moderate rain 6.000 6.000 6.000 56 4.86 m/h 378 %
10-Apr-2020 (Fri)
02:00:00 light rain 5.160 5.160 5.160 56 3.62 m/h 169 %
05:00:00 light rain 5.170 5.170 5.170 53 3.21 m/h 30 %
08:00:00 scattered clouds 9.580 9.580 9.580 48 2.96 m/h 0 %
11:00:00 few clouds 15.410 15.410 15.410 33 1.69 m/h 0 %
14:00:00 few clouds 17.720 17.720 17.720 26 0.66 m/h 0 %
17:00:00 clear sky 16.900 16.900 16.900 31 0.65 m/h 0 %
20:00:00 clear sky 10.760 10.760 10.760 40 1.72 m/h 0 %
23:00:00 clear sky 9.330 9.330 9.330 39 2.59 m/h 0 %
11-Apr-2020 (Sat)
02:00:00 broken clouds 8.540 8.540 8.540 38 2.95 m/h 0 %
05:00:00 overcast clouds 7.910 7.910 7.910 36 3.11 m/h 0 %
08:00:00 broken clouds 11.980 11.980 11.980 40 2.83 m/h 0 %
11:00:00 broken clouds 17.790 17.790 17.790 27 0.78 m/h 0 %
14:00:00 scattered clouds 19.830 19.830 19.830 20 0.33 m/h 0 %
17:00:00 scattered clouds 18.420 18.420 18.420 31 1.27 m/h 0 %
20:00:00 broken clouds 11.890 11.890 11.890 37 1.4 m/h 0 %
23:00:00 broken clouds 10.830 10.830 10.830 37 2.26 m/h 0 %
12-Apr-2020 (Sun)
02:00:00 overcast clouds 9.970 9.970 9.970 36 2.39 m/h 0 %
05:00:00 broken clouds 8.870 8.870 8.870 33 2.87 m/h 0 %
08:00:00 clear sky 13.250 13.250 13.250 36 2.71 m/h 0 %
11:00:00 clear sky 19.500 19.500 19.500 24 1 m/h 0 %
14:00:00 clear sky 21.330 21.330 21.330 20 1.02 m/h 0 %
17:00:00 few clouds 19.880 19.880 19.880 32 1.48 m/h 0 %
20:00:00 broken clouds 13.600 13.600 13.600 37 1.32 m/h 0 %
23:00:00 broken clouds 12.150 12.150 12.150 36 2.31 m/h 0 %
13-Apr-2020 (Mon)
02:00:00 overcast clouds 11.410 11.410 11.410 35 2.52 m/h 0 %
05:00:00 overcast clouds 10.440 10.440 10.440 33 2.43 m/h 0 %
08:00:00 overcast clouds 14.470 14.470 14.470 36 2.49 m/h 0 %
11:00:00 overcast clouds 20.710 20.710 20.710 25 0.62 m/h 0 %
14:00:00 broken clouds 22.220 22.220 22.220 20 1.79 m/h 0 %
17:00:00 scattered clouds 20.890 20.890 20.890 29 1.62 m/h 0 %
20:00:00 broken clouds 14.310 14.310 14.310 32 0.69 m/h 0 %
23:00:00 broken clouds 12.940 12.940 12.940 34 2.56 m/h 0 %

Famous Cities (61)